createdAt,value
2022-11-05T00:04:28.188Z,99387.19
2022-11-05T00:09:33.632Z,99398.03
2022-11-05T00:14:53.754Z,99394.47
2022-11-05T00:19:56.972Z,99401.88
2022-11-05T00:25:14.104Z,99408.19
2022-11-05T00:30:19.377Z,99404.84
2022-11-05T00:35:22.532Z,99417.22
2022-11-05T00:40:24.205Z,99412.59
2022-11-05T00:45:25.974Z,99414.88
2022-11-05T00:50:28.224Z,99422.31
2022-11-05T00:55:39.897Z,99430.63
2022-11-05T01:00:48.719Z,99436.63
2022-11-05T01:05:56.189Z,99442.19
2022-11-05T01:10:58.855Z,99442.69
2022-11-05T01:16:05.997Z,99444.56
2022-11-05T01:21:16.718Z,99439.16
2022-11-05T01:26:18.361Z,99440.16
2022-11-05T01:31:20.510Z,99453.50
2022-11-05T01:36:22.151Z,99468.91
2022-11-05T01:41:23.853Z,99474.00
2022-11-05T01:46:29.614Z,99476.94
2022-11-05T01:51:31.474Z,99495.72
2022-11-05T01:56:38.107Z,99502.00
2022-11-05T02:01:39.728Z,99504.25
2022-11-05T02:06:48.129Z,99505.41
2022-11-05T02:11:51.466Z,99508.72
2022-11-05T02:17:01.361Z,99504.50
2022-11-05T02:22:21.306Z,99506.13
2022-11-05T02:27:44.097Z,99511.06
2022-11-05T02:33:11.097Z,99524.63
2022-11-05T02:38:29.702Z,99533.25
2022-11-05T02:43:41.899Z,99537.13
2022-11-05T02:49:10.728Z,99527.69
2022-11-05T02:54:14.964Z,99531.75
2022-11-05T02:59:16.490Z,99535.25
2022-11-05T03:04:21.307Z,99544.78
2022-11-05T03:09:54.760Z,99560.53
2022-11-05T03:15:12.266Z,99566.88
2022-11-05T03:20:20.064Z,99567.97
2022-11-05T03:25:24.328Z,99563.47
2022-11-05T03:30:26.662Z,99571.72
2022-11-05T03:35:34.360Z,99574.44
2022-11-05T03:40:38.750Z,99580.47
2022-11-05T03:46:06.559Z,99578.91
2022-11-05T03:51:32.073Z,99585.78
2022-11-05T03:56:42.602Z,99595.03
2022-11-05T04:01:44.346Z,99607.41
2022-11-05T04:07:04.513Z,99612.03
2022-11-05T04:12:25.020Z,99616.59
2022-11-05T04:17:26.625Z,99626.69
2022-11-05T04:22:50.319Z,99639.13
2022-11-05T04:27:51.912Z,99652.88
2022-11-05T04:33:14.583Z,99654.44
2022-11-05T04:38:18.715Z,99656.00
2022-11-05T04:43:20.419Z,99660.50
2022-11-05T04:48:22.260Z,99673.03
2022-11-05T04:53:23.803Z,99673.03
2022-11-05T04:58:25.491Z,99677.16
2022-11-05T05:03:27.008Z,99671.41
2022-11-05T05:08:28.656Z,99674.41
2022-11-05T05:13:30.382Z,99680.63
2022-11-05T05:18:31.931Z,99682.53
2022-11-05T05:23:33.443Z,99682.00
2022-11-05T05:28:35.009Z,99697.19
2022-11-05T05:33:36.666Z,99711.91
2022-11-05T05:38:38.295Z,99717.88
2022-11-05T05:43:39.880Z,99715.25
2022-11-05T05:48:42.395Z,99715.63
2022-11-05T05:53:44.340Z,99722.75
2022-11-05T05:58:46.814Z,99733.22
2022-11-05T06:03:48.883Z,99734.09
2022-11-05T06:08:50.453Z,99745.09
2022-11-05T06:13:52.070Z,99739.22
2022-11-05T06:18:53.552Z,99744.81
2022-11-05T06:23:55.102Z,99751.00
2022-11-05T06:28:56.970Z,99756.28
2022-11-05T06:33:58.510Z,99775.41
2022-11-05T06:39:00.058Z,99781.34
2022-11-05T06:44:01.637Z,99791.97
2022-11-05T06:49:03.241Z,99808.66
2022-11-05T06:54:05.210Z,99811.88
2022-11-05T06:59:08.492Z,99814.63
2022-11-05T07:04:12.234Z,99829.97
2022-11-05T07:09:13.810Z,99836.38
2022-11-05T07:14:15.350Z,99851.16
2022-11-05T07:19:16.920Z,99858.13
2022-11-05T07:24:18.503Z,99864.88
2022-11-05T07:29:20.066Z,99881.75
2022-11-05T07:34:21.673Z,99889.72
2022-11-05T07:39:23.357Z,99897.09
2022-11-05T07:44:24.935Z,99903.09
2022-11-05T07:49:26.443Z,99901.66
2022-11-05T07:54:28.066Z,99910.06
2022-11-05T07:59:29.613Z,99915.63
2022-11-05T08:04:31.251Z,99919.16
2022-11-05T08:09:32.776Z,99928.28
2022-11-05T08:14:34.366Z,99931.53
2022-11-05T08:19:35.930Z,99932.25
2022-11-05T08:24:37.500Z,99937.34
2022-11-05T08:29:39.043Z,99941.94
2022-11-05T08:34:40.662Z,99947.13
2022-11-05T08:39:42.256Z,99948.75
2022-11-05T08:44:44.199Z,99961.84
2022-11-05T08:49:45.945Z,99968.69
2022-11-05T08:54:47.767Z,99969.94
2022-11-05T08:59:49.380Z,99978.59
2022-11-05T09:04:51.032Z,99982.53
2022-11-05T09:09:52.745Z,99981.22
2022-11-05T09:14:54.491Z,99982.69
2022-11-05T09:19:56.115Z,99981.78
2022-11-05T09:24:57.837Z,99983.44
2022-11-05T09:29:59.483Z,99991.06
2022-11-05T09:35:01.571Z,99992.78
2022-11-05T09:40:03.601Z,99994.97
2022-11-05T09:45:10.581Z,99997.69
2022-11-05T09:50:18.790Z,99989.28
2022-11-05T09:55:35.415Z,100006.47
2022-11-05T10:00:37.389Z,100001.38
2022-11-05T10:05:40.498Z,100011.47
2022-11-05T10:10:46.219Z,100009.91
2022-11-05T10:15:57.670Z,100014.13
2022-11-05T10:20:59.442Z,100029.69
2022-11-05T10:26:09.153Z,100030.72
2022-11-05T10:31:14.761Z,100030.88
2022-11-05T10:36:29.279Z,100033.97
2022-11-05T10:41:52.683Z,100032.94
2022-11-05T10:47:24.804Z,100032.41
2022-11-05T10:52:35.246Z,100031.28
2022-11-05T10:57:39.664Z,100039.28
2022-11-05T11:02:50.082Z,100041.41
2022-11-05T11:07:55.962Z,100043.56
2022-11-05T11:12:59.052Z,100049.44
2022-11-05T11:18:25.143Z,100054.22
2022-11-05T11:23:27.937Z,100047.31
2022-11-05T11:28:37.359Z,100053.75
2022-11-05T11:33:43.130Z,100052.94
2022-11-05T11:38:45.188Z,100062.31
2022-11-05T11:43:47.048Z,100060.22
2022-11-05T11:48:49.577Z,100061.81
2022-11-05T11:53:57.511Z,100064.91
2022-11-05T11:59:15.562Z,100057.13
2022-11-05T12:04:39.020Z,100058.13
2022-11-05T12:10:13.016Z,100051.03
2022-11-05T12:15:39.219Z,100046.63
2022-11-05T12:20:57.830Z,100051.31
2022-11-05T12:26:33.064Z,100052.63
2022-11-05T12:31:45.147Z,100047.56
2022-11-05T12:37:16.970Z,100055.97
2022-11-05T12:42:33.831Z,100064.38
2022-11-05T12:47:35.293Z,100075.13
2022-11-05T12:52:56.853Z,100067.19
2022-11-05T12:58:12.985Z,100069.50
2022-11-05T13:03:22.060Z,100070.03
2022-11-05T13:08:39.246Z,100064.09
2022-11-05T13:13:53.949Z,100070.00
2022-11-05T13:19:05.347Z,100066.41
2022-11-05T13:24:22.784Z,100070.44
2022-11-05T13:29:27.284Z,100072.25
2022-11-05T13:34:33.452Z,100084.88
2022-11-05T13:39:43.685Z,100092.06
2022-11-05T13:45:00.971Z,100103.69
2022-11-05T13:50:41.048Z,100102.84
2022-11-05T13:56:01.433Z,100107.41
2022-11-05T14:01:09.040Z,100110.78
2022-11-05T14:06:10.975Z,100112.81
2022-11-05T14:11:27.467Z,100113.59
2022-11-05T14:16:47.647Z,100115.88
2022-11-05T14:21:51.564Z,100121.28
2022-11-05T14:27:02.424Z,100112.47
2022-11-05T14:32:19.365Z,100117.66
2022-11-05T14:37:25.934Z,100116.47
2022-11-05T14:42:27.434Z,100118.97
2022-11-05T14:47:33.038Z,100126.72
2022-11-05T14:52:35.738Z,100124.97
2022-11-05T14:57:43.488Z,100131.75
2022-11-05T15:02:57.851Z,100138.66
2022-11-05T15:08:20.056Z,100145.06
2022-11-05T15:13:32.794Z,100146.81
2022-11-05T15:18:45.082Z,100152.59
2022-11-05T15:23:48.788Z,100163.09
2022-11-05T15:28:52.534Z,100167.97
2022-11-05T15:34:18.969Z,100156.91
2022-11-05T15:39:40.292Z,100169.47
2022-11-05T15:44:48.075Z,100170.38
2022-11-05T15:50:09.955Z,100173.50
2022-11-05T15:55:14.926Z,100179.81
2022-11-05T16:00:28.363Z,100183.41
2022-11-05T16:05:42.076Z,100179.31
2022-11-05T16:10:48.916Z,100189.25
2022-11-05T16:15:59.193Z,100194.63
2022-11-05T16:21:08.134Z,100188.72
2022-11-05T16:32:00.965Z,100199.44
2022-11-05T16:37:04.528Z,100206.44
2022-11-05T16:42:36.578Z,100204.28
2022-11-05T16:47:38.378Z,100212.91
2022-11-05T16:52:40.025Z,100213.06
2022-11-05T16:57:44.395Z,100218.44
2022-11-05T17:02:46.820Z,100221.91
2022-11-05T17:07:48.691Z,100219.22
2022-11-05T17:12:50.936Z,100226.94
2022-11-05T17:17:55.667Z,100225.28
2022-11-05T17:22:58.125Z,100230.66
2022-11-05T17:27:59.916Z,100233.44
2022-11-05T17:33:02.113Z,100242.34
2022-11-05T17:38:03.809Z,100240.56
2022-11-05T17:43:09.710Z,100237.25
2022-11-05T17:48:12.204Z,100239.31
2022-11-05T17:53:16.149Z,100251.63
2022-11-05T17:58:17.754Z,100257.03
2022-11-05T18:03:19.537Z,100261.41
2022-11-05T18:08:21.105Z,100264.09
2022-11-05T18:13:22.764Z,100276.31
2022-11-05T18:18:24.306Z,100276.41
2022-11-05T18:23:26.205Z,100279.91
2022-11-05T18:28:29.954Z,100293.00
2022-11-05T18:33:31.731Z,100285.22
2022-11-05T18:38:33.260Z,100291.28
2022-11-05T18:43:34.865Z,100305.28
2022-11-05T18:48:36.894Z,100306.09
2022-11-05T18:53:39.310Z,100295.78
2022-11-05T18:58:41.273Z,100304.50
2022-11-05T19:03:42.881Z,100303.53
2022-11-05T19:08:44.857Z,100304.59
2022-11-05T19:13:46.724Z,100295.13
2022-11-05T19:18:48.867Z,100290.72
2022-11-05T19:23:51.084Z,100304.72
2022-11-05T19:28:52.746Z,100301.03
2022-11-05T19:33:55.286Z,100306.13
2022-11-05T19:38:59.154Z,100309.72
2022-11-05T19:44:03.569Z,100305.56
2022-11-05T19:49:05.306Z,100309.94
2022-11-05T19:54:08.993Z,100323.94
2022-11-05T19:59:11.583Z,100313.53
2022-11-05T20:04:15.811Z,100319.63
2022-11-05T20:09:22.224Z,100330.03
2022-11-05T20:14:25.212Z,100326.59
2022-11-05T20:19:26.740Z,100325.75
2022-11-05T20:24:28.805Z,100335.31
2022-11-05T20:29:35.221Z,100348.34
2022-11-05T20:34:37.614Z,100353.50
2022-11-05T20:39:39.284Z,100354.34
2022-11-05T20:44:41.447Z,100361.44
2022-11-05T20:49:43.372Z,100369.25
2022-11-05T20:54:45.860Z,100366.69
2022-11-05T20:59:47.360Z,100357.97
2022-11-05T21:04:49.224Z,100351.06
2022-11-05T21:09:50.902Z,100358.00
2022-11-05T21:14:53.050Z,100348.47
2022-11-05T21:19:54.565Z,100345.00
2022-11-05T21:24:56.852Z,100347.59
2022-11-05T21:29:58.350Z,100354.56
2022-11-05T21:34:59.940Z,100355.41
2022-11-05T21:40:01.503Z,100356.28
2022-11-05T21:45:03.193Z,100357.97
2022-11-05T21:50:05.289Z,100362.31
2022-11-05T21:55:26.218Z,100364.06
2022-11-05T22:00:27.697Z,100363.22
2022-11-05T22:05:32.823Z,100354.53
2022-11-05T22:10:34.445Z,100364.06
2022-11-05T22:15:36.003Z,100353.69
2022-11-05T22:20:39.561Z,100351.03
2022-11-05T22:25:41.105Z,100349.28
2022-11-05T22:30:42.593Z,100341.47
2022-11-05T22:35:44.109Z,100347.53
2022-11-05T22:40:45.644Z,100341.44
2022-11-05T22:45:47.212Z,100337.13
2022-11-05T22:50:48.757Z,100342.31
2022-11-05T22:55:50.372Z,100341.47
2022-11-05T23:00:51.960Z,100333.63
2022-11-05T23:06:05.948Z,100336.13
2022-11-05T23:11:38.370Z,100343.09
2022-11-05T23:17:00.263Z,100355.19
2022-11-05T23:22:20.810Z,100357.75
2022-11-05T23:27:22.468Z,100347.47
2022-11-05T23:32:24.087Z,100358.66
2022-11-05T23:37:46.562Z,100343.16
2022-11-05T23:43:07.293Z,100344.84
2022-11-05T23:48:32.802Z,100346.41
2022-11-05T23:53:36.544Z,100355.03
2022-11-05T23:58:39.110Z,100372.22
